Wrenshall, MN (55797)

3:27 PM CST on February 08, 2016 (GMT -0600)
Esko | | Change Station
CLOSE
Current Station
Personal Weather Station
Location: Esko, MN
Elevation: 1145 ft
Nearby Weather Stations

Elev 1145 ft 46.68 °N, 92.34 °W | Updated 9 seconds ago

Overcast
Overcast
12.7 °F
Feels Like 3 °F
N
6.7
Wind Variable Wind from NNW
Gusts 9.8 mph

Today
High -- | Low -- °F
--% Chance of Precip.
Yesterday
High -- | Low -- °F
Precip. -- in
Pressure 29.88 in
Visibility 3.0 miles
Clouds Scattered Clouds 2800 ft
Mostly Cloudy 3700 ft
Overcast 6500 ft
Windchill 3 °F
Dew Point -3 °F
Humidity 48%
Rainfall 0.00 in
Snow Depth Not available.
7:24 AM 5:23 PM
New Moon, 0% visible
METAR KCOQ 082115Z AUTO 30013G23KT 3SM -SN SCT028 BKN037 OVC065 M12/M16 A2988 RMK AO2
Pressure 29.88 in
Visibility 3.0 miles
Clouds Scattered Clouds 2800 ft
Mostly Cloudy 3700 ft
Overcast 6500 ft
Windchill 3 °F
Dew Point -3 °F
Humidity 48%
Rainfall 0.00 in
Snow Depth Not available.
7:24 AM 5:23 PM
New Moon, 0% visible
METAR KCOQ 082115Z AUTO 30013G23KT 3SM -SN SCT028 BKN037 OVC065 M12/M16 A2988 RMK AO2

10-Day Weather Forecast

Almanac

Astronomy

Feb. 08, 2016 Rise Set
Actual Time
Civil Twilight
Nautical Twilight
Astronomical Twilight
Moon
Length of Visible Light
Length of Day
Tomorrow will be .
, % of the Moon is Illuminated

Today's Extremes

State Highs State Lows

Community

WunderPhotos

Upload Photos

1,891,516 photos uploaded!

WunderBlog® & News

Nearby

Air Quality

  Air Quality AQ Index Pollutant
Not available.

Snow Depth

Station Depth Elevation

Earthquake Activity

City Distance Mag. Time & Date
Minimum magnitude displayed is 2.5.

Coastal Water Temperatures

Place Temperature

Stations

Nearby Weather Stations

Station Location Temp. Windchill Dew Point Humidity Wind Precip. Elev Updated Type
                   

Watches & Warnings

There are currently no watches in effect.